Time;durP1;ratioP1;P1;durP2;ratioP2;P2;SDS_P1;SDS_P2;PMS_P1;PMS_P2;Temp;Humidity;BMP_temperature;BMP_pressure;BME280_temperature;BME280_humidity;BME280_pressure;Samples;Min_cycle;Max_cycle;Signal;HPM_P1;HPM_P2
2022/04/05 00:02:21;;;;;;;13.80;10.30;;;7.70;99.90;;;;;;5000859;28;20021;-86
2022/04/05 00:04:46;;;;;;;12.77;10.20;;;7.80;99.90;;;;;;5002213;28;20034;-87
2022/04/05 00:07:12;;;;;;;13.88;10.30;;;7.80;99.90;;;;;;5002185;28;20128;-84
2022/04/05 00:09:38;;;;;;;12.93;10.10;;;7.80;99.90;;;;;;5001416;28;20095;-86
2022/04/05 00:12:04;;;;;;;14.45;10.93;;;7.80;99.90;;;;;;5001477;28;20037;-85
2022/04/05 00:14:29;;;;;;;15.15;11.32;;;7.90;99.90;;;;;;5019139;28;20037;-86
2022/04/05 00:16:55;;;;;;;14.55;11.38;;;7.90;99.90;;;;;;5001858;28;20395;-84
2022/04/05 00:19:22;;;;;;;15.45;11.15;;;7.90;99.90;;;;;;5019547;28;20052;-83
2022/04/05 00:21:48;;;;;;;15.18;11.55;;;7.90;99.90;;;;;;5001197;28;20053;-85
2022/04/05 00:24:17;;;;;;;13.18;10.45;;;8.00;99.90;;;;;;5001410;28;20040;-85
2022/04/05 00:26:43;;;;;;;15.40;11.05;;;8.00;99.90;;;;;;5001542;28;20465;-85
2022/04/05 00:29:08;;;;;;;15.38;10.98;;;8.00;99.90;;;;;;5002761;28;20041;-86
2022/04/05 00:31:34;;;;;;;15.35;10.30;;;8.00;99.90;;;;;;5019028;28;20026;-86
2022/04/05 00:34:00;;;;;;;15.70;11.57;;;8.00;99.90;;;;;;5000490;28;20033;-84
2022/04/05 00:36:25;;;;;;;17.67;12.23;;;8.00;99.90;;;;;;5019024;28;20026;-87
2022/04/05 00:38:51;;;;;;;16.23;11.95;;;8.00;99.90;;;;;;5001072;28;20080;-83
2022/04/05 00:41:17;;;;;;;17.75;12.30;;;8.00;99.90;;;;;;5000692;28;20045;-86
2022/04/05 00:43:42;;;;;;;16.50;12.20;;;8.00;99.90;;;;;;5019923;28;20022;-85
2022/04/05 00:46:08;;;;;;;17.20;13.73;;;8.10;99.90;;;;;;5021358;28;20071;-84
2022/04/05 00:48:46;;;;;;;18.20;13.23;;;8.10;99.90;;;;;;5021172;28;20055;-84
2022/04/05 00:51:11;;;;;;;18.52;12.98;;;8.10;99.90;;;;;;5020556;28;20049;-84
2022/04/05 00:53:38;;;;;;;18.65;13.80;;;8.20;99.90;;;;;;5020439;28;20465;-87
2022/04/05 00:56:06;;;;;;;21.83;13.02;;;8.20;99.90;;;;;;5021897;28;20472;-87
2022/04/05 00:58:34;;;;;;;18.80;13.80;;;8.20;99.90;;;;;;5020626;28;20121;-86
2022/04/05 01:01:00;;;;;;;21.20;13.30;;;8.20;99.90;;;;;;5038595;28;20017;-86
2022/04/05 01:03:26;;;;;;;18.30;13.88;;;8.20;99.90;;;;;;5020565;28;20026;-85
2022/04/05 01:05:52;;;;;;;16.38;12.57;;;8.20;99.90;;;;;;5038965;28;20101;-85
2022/04/05 01:08:20;;;;;;;18.45;13.35;;;8.20;99.90;;;;;;5021210;28;20025;-86
2022/04/05 01:10:47;;;;;;;17.10;13.10;;;8.20;99.90;;;;;;5022122;28;20039;-84
2022/04/05 01:13:13;;;;;;;19.02;14.25;;;8.20;99.90;;;;;;5022758;28;20500;-82
2022/04/05 01:15:39;;;;;;;17.70;13.38;;;8.20;99.90;;;;;;5021254;28;20148;-86
2022/04/05 01:18:05;;;;;;;18.60;14.77;;;8.30;99.90;;;;;;5039071;28;20481;-86
2022/04/05 01:20:32;;;;;;;19.67;15.10;;;8.30;99.90;;;;;;5038141;28;20026;-85
2022/04/05 01:22:58;;;;;;;19.17;14.43;;;8.30;99.90;;;;;;5020036;28;20061;-87
2022/04/05 01:25:24;;;;;;;20.60;14.60;;;8.30;99.90;;;;;;5038185;28;20068;-87
2022/04/05 01:27:51;;;;;;;19.98;15.00;;;8.30;99.90;;;;;;5037562;28;20029;-87
2022/04/05 01:30:17;;;;;;;21.45;15.23;;;8.40;99.90;;;;;;5038164;28;20120;-85
2022/04/05 01:32:43;;;;;;;22.27;16.73;;;8.40;99.90;;;;;;5030054;28;20044;-84
2022/04/05 01:35:10;;;;;;;12.88;9.43;;;8.40;99.90;;;;;;5026113;28;20034;-84
2022/04/05 01:37:36;;;;;;;9.75;7.15;;;8.40;99.90;;;;;;5020723;28;20075;-88
2022/04/05 01:40:03;;;;;;;9.25;7.28;;;8.30;99.90;;;;;;5019961;28;20389;-88
2022/04/05 01:42:30;;;;;;;7.32;5.50;;;8.20;99.90;;;;;;5054492;22;20045;-77
2022/04/05 01:44:56;;;;;;;4.75;3.72;;;8.10;99.90;;;;;;5028607;28;20477;-80
2022/04/05 01:47:21;;;;;;;3.35;2.58;;;8.00;99.90;;;;;;5014901;28;20172;-83
2022/04/05 01:49:50;;;;;;;3.83;1.70;;;7.90;99.90;;;;;;5032064;28;20169;-77
2022/04/05 01:52:18;;;;;;;2.30;1.70;;;7.80;99.90;;;;;;5032740;28;20026;-79
2022/04/05 01:57:12;;;;;;;2.50;1.33;;;7.70;99.90;;;;;;5014810;28;20159;-83
2022/04/05 01:59:39;;;;;;;1.92;1.35;;;7.70;99.90;;;;;;4999060;28;20058;-84
2022/04/05 02:02:06;;;;;;;2.70;1.10;;;7.60;99.90;;;;;;5000244;28;20026;-83
2022/04/05 02:04:32;;;;;;;1.83;1.10;;;7.50;99.90;;;;;;5018803;28;20548;-84
2022/04/05 02:06:58;;;;;;;3.65;1.70;;;7.50;99.90;;;;;;5020885;28;20037;-84
2022/04/05 02:09:24;;;;;;;2.13;1.05;;;7.50;99.90;;;;;;5003971;28;20536;-84
2022/04/05 02:11:49;;;;;;;1.45;1.13;;;7.50;99.90;;;;;;5002685;28;20038;-86
2022/04/05 02:14:16;;;;;;;1.55;1.08;;;7.50;99.90;;;;;;5021292;28;20339;-85
2022/04/05 02:16:42;;;;;;;1.52;1.25;;;7.50;99.90;;;;;;5002770;28;20076;-85
2022/04/05 02:19:09;;;;;;;2.30;1.30;;;7.40;99.90;;;;;;5002530;28;20033;-85
2022/04/05 02:21:34;;;;;;;2.63;0.88;;;7.40;99.90;;;;;;5003535;28;20033;-84
2022/04/05 02:24:01;;;;;;;1.10;1.00;;;7.30;99.90;;;;;;5005738;28;20030;-84
2022/04/05 02:26:27;;;;;;;1.15;0.98;;;7.30;99.90;;;;;;5005463;28;20468;-84
2022/04/05 02:28:52;;;;;;;1.30;0.90;;;7.30;99.90;;;;;;5005501;28;20033;-86
2022/04/05 02:31:18;;;;;;;1.52;0.90;;;7.30;99.90;;;;;;5002383;28;20026;-84
2022/04/05 02:33:44;;;;;;;1.95;0.85;;;7.30;99.90;;;;;;5003093;28;20021;-85
2022/04/05 02:36:10;;;;;;;4.65;1.30;;;7.20;99.90;;;;;;5019998;28;20030;-86
2022/04/05 02:38:36;;;;;;;1.65;1.00;;;7.20;99.90;;;;;;5002570;28;20033;-85
2022/04/05 02:41:05;;;;;;;2.55;1.63;;;7.20;99.90;;;;;;5029541;28;20010;-86
2022/04/05 02:43:31;;;;;;;2.03;1.40;;;7.20;99.90;;;;;;5038800;28;20018;-85
2022/04/05 02:45:57;;;;;;;2.58;1.70;;;7.20;99.90;;;;;;5014480;28;20118;-86
2022/04/05 02:48:23;;;;;;;5.80;3.55;;;7.20;99.90;;;;;;5011490;28;20151;-87
2022/04/05 02:50:50;;;;;;;6.68;4.55;;;7.20;99.90;;;;;;5009222;28;20022;-86
2022/04/05 02:53:15;;;;;;;6.13;3.35;;;7.10;99.90;;;;;;5008878;28;20120;-87
2022/04/05 02:55:42;;;;;;;3.22;2.40;;;7.10;99.90;;;;;;5009439;28;20509;-86
2022/04/05 02:58:08;;;;;;;4.05;3.20;;;7.10;99.90;;;;;;5025949;28;20018;-86
2022/04/05 03:00:33;;;;;;;3.00;2.45;;;7.10;99.90;;;;;;5008806;28;20022;-87
2022/04/05 03:02:59;;;;;;;3.58;3.08;;;7.20;99.90;;;;;;5007576;28;20029;-87
2022/04/05 03:05:25;;;;;;;3.72;2.95;;;7.20;99.90;;;;;;5006764;28;20397;-85
2022/04/05 03:07:51;;;;;;;3.03;2.60;;;7.10;99.90;;;;;;5006556;28;20022;-85
2022/04/05 03:10:17;;;;;;;2.38;2.00;;;7.10;99.90;;;;;;5005664;28;20113;-86
2022/04/05 03:12:43;;;;;;;4.72;2.78;;;7.10;99.90;;;;;;5006323;28;20375;-87
2022/04/05 03:15:09;;;;;;;3.30;2.88;;;7.10;99.90;;;;;;5005812;28;20057;-86
2022/04/05 03:17:40;;;;;;;5.55;3.35;;;7.10;99.90;;;;;;5006141;28;20022;-88
2022/04/05 03:20:06;;;;;;;7.60;3.88;;;7.10;99.90;;;;;;5005158;28;20105;-87
2022/04/05 03:22:32;;;;;;;5.90;3.97;;;7.10;99.90;;;;;;5004893;28;20085;-85
2022/04/05 03:24:57;;;;;;;6.82;3.70;;;7.10;99.90;;;;;;5004733;28;20057;-85
2022/04/05 03:27:23;;;;;;;4.82;3.15;;;7.10;99.90;;;;;;5005124;28;20022;-87
2022/04/05 03:29:49;;;;;;;4.70;3.70;;;7.10;99.90;;;;;;5004274;28;20393;-84
2022/04/05 03:32:14;;;;;;;4.20;3.15;;;7.10;99.90;;;;;;5003038;28;20025;-85
2022/04/05 03:34:40;;;;;;;4.90;3.10;;;7.10;99.90;;;;;;5004841;28;20033;-86
2022/04/05 03:37:07;;;;;;;7.15;3.67;;;7.10;99.90;;;;;;5005557;28;20032;-85
2022/04/05 03:39:33;;;;;;;5.40;3.15;;;7.10;99.90;;;;;;5003888;28;20118;-86
2022/04/05 03:41:59;;;;;;;6.85;3.25;;;7.10;99.90;;;;;;5004637;28;20057;-84
2022/04/05 03:44:26;;;;;;;4.15;3.30;;;7.10;99.90;;;;;;5004105;28;20461;-85
2022/04/05 03:46:56;;;;;;;4.10;2.97;;;7.10;99.90;;;;;;5004888;28;20034;-85
2022/04/05 03:49:22;;;;;;;4.05;2.97;;;7.10;99.90;;;;;;5004609;28;20397;-88
2022/04/05 03:51:48;;;;;;;4.07;3.20;;;7.10;99.90;;;;;;5023653;28;20018;-85
2022/04/05 03:54:13;;;;;;;4.50;3.42;;;7.10;99.90;;;;;;5005065;28;20034;-84
2022/04/05 03:56:39;;;;;;;4.47;3.53;;;7.10;99.90;;;;;;5008930;28;20034;-84
2022/04/05 03:59:05;;;;;;;5.05;3.55;;;7.20;99.90;;;;;;5008403;28;20048;-84
2022/04/05 04:01:30;;;;;;;5.32;4.40;;;7.10;99.90;;;;;;5026504;28;20206;-85
2022/04/05 04:03:56;;;;;;;6.05;3.85;;;7.10;99.90;;;;;;5008062;28;20018;-86
2022/04/05 04:06:21;;;;;;;4.88;3.78;;;7.10;99.90;;;;;;5008120;28;20038;-86
2022/04/05 04:08:47;;;;;;;4.32;3.40;;;7.10;99.90;;;;;;5006519;28;20049;-85
2022/04/05 04:11:13;;;;;;;5.28;3.30;;;7.10;99.90;;;;;;5004890;28;20037;-85
2022/04/05 04:13:39;;;;;;;4.80;3.30;;;7.10;99.90;;;;;;5009550;28;20037;-85
2022/04/05 04:16:05;;;;;;;4.22;3.00;;;7.10;99.90;;;;;;5011441;28;20102;-85
2022/04/05 04:18:32;;;;;;;4.95;3.70;;;7.10;99.90;;;;;;5032250;28;20048;-84
2022/04/05 04:20:58;;;;;;;5.00;3.53;;;7.10;99.90;;;;;;5029084;28;20048;-81
2022/04/05 04:23:23;;;;;;;6.78;3.95;;;7.20;99.90;;;;;;5018546;28;20113;-84
2022/04/05 04:25:49;;;;;;;8.55;4.90;;;7.20;99.90;;;;;;5018567;28;20048;-83
2022/04/05 04:28:15;;;;;;;6.18;4.70;;;7.20;99.90;;;;;;5018218;28;20018;-85
2022/04/05 04:30:40;;;;;;;8.82;4.35;;;7.20;99.90;;;;;;5018925;28;20022;-86
2022/04/05 04:33:08;;;;;;;8.25;5.13;;;7.20;99.90;;;;;;5002563;28;20511;-82
2022/04/05 04:35:34;;;;;;;8.20;5.32;;;7.20;99.90;;;;;;4999729;28;20217;-84
2022/04/05 04:38:01;;;;;;;11.80;6.43;;;7.20;99.90;;;;;;4998751;28;20228;-84
2022/04/05 04:40:26;;;;;;;9.93;6.03;;;7.20;99.90;;;;;;5017320;28;20022;-84
2022/04/05 04:42:52;;;;;;;12.38;6.43;;;7.20;99.90;;;;;;5019165;28;20033;-86
2022/04/05 04:45:18;;;;;;;12.27;7.32;;;7.20;99.90;;;;;;5000345;28;20061;-86
2022/04/05 04:47:43;;;;;;;12.43;7.93;;;7.20;99.90;;;;;;5019748;28;20086;-86
2022/04/05 04:50:13;;;;;;;12.77;7.45;;;7.20;99.90;;;;;;5019263;28;20053;-85
2022/04/05 04:52:39;;;;;;;11.00;6.82;;;7.20;99.90;;;;;;5019526;28;20018;-85
2022/04/05 04:55:08;;;;;;;10.73;6.93;;;7.20;99.90;;;;;;5003305;28;20026;-87
2022/04/05 04:57:35;;;;;;;11.13;7.43;;;7.30;99.90;;;;;;5020944;28;20081;-84
2022/04/05 05:00:00;;;;;;;11.68;7.10;;;7.20;99.90;;;;;;5004106;28;20022;-86
2022/04/05 05:02:26;;;;;;;12.98;7.50;;;7.30;99.90;;;;;;5021322;28;20056;-83
2022/04/05 05:04:52;;;;;;;10.95;7.53;;;7.30;99.90;;;;;;5001837;28;20022;-82
2022/04/05 05:07:18;;;;;;;11.93;8.45;;;7.20;99.90;;;;;;5003476;28;20139;-83
2022/04/05 05:09:44;;;;;;;12.77;8.20;;;7.30;99.90;;;;;;5003018;28;20057;-84
2022/04/05 05:12:11;;;;;;;14.98;9.25;;;7.30;99.90;;;;;;5020894;28;20017;-85
2022/04/05 05:14:37;;;;;;;14.43;9.30;;;7.30;99.90;;;;;;5020645;28;20030;-84
2022/04/05 05:17:03;;;;;;;12.75;8.93;;;7.30;99.90;;;;;;5020807;28;20085;-84
2022/04/05 05:19:29;;;;;;;17.42;9.18;;;7.30;99.90;;;;;;5002118;28;20026;-85
2022/04/05 05:21:54;;;;;;;13.63;8.98;;;7.30;99.90;;;;;;5021004;28;20081;-86
2022/04/05 05:24:20;;;;;;;13.63;8.95;;;7.30;99.90;;;;;;5001905;28;20172;-84
2022/04/05 05:26:46;;;;;;;17.27;10.48;;;7.30;99.90;;;;;;5002260;28;20502;-85
2022/04/05 05:29:12;;;;;;;17.02;10.75;;;7.30;99.90;;;;;;5001215;28;20022;-84
2022/04/05 05:31:38;;;;;;;18.25;10.35;;;7.30;99.90;;;;;;5000690;28;20345;-85
2022/04/05 05:34:04;;;;;;;16.25;10.32;;;7.30;99.90;;;;;;5017797;28;20113;-83
2022/04/05 05:36:30;;;;;;;19.52;10.73;;;7.40;99.90;;;;;;5000499;28;20026;-84
2022/04/05 05:38:55;;;;;;;21.55;11.40;;;7.40;99.90;;;;;;5019255;28;20026;-86
2022/04/05 05:41:21;;;;;;;17.45;10.88;;;7.40;99.90;;;;;;5004281;28;20022;-87
2022/04/05 05:43:46;;;;;;;17.27;11.63;;;7.40;99.90;;;;;;5004383;28;20465;-84
2022/04/05 05:46:13;;;;;;;19.63;11.23;;;7.50;99.90;;;;;;5021263;28;20033;-85
2022/04/05 05:48:38;;;;;;;19.70;11.05;;;7.50;99.90;;;;;;5003052;28;20036;-85
2022/04/05 05:51:05;;;;;;;18.40;11.15;;;7.50;99.90;;;;;;5021782;28;20033;-83
2022/04/05 05:53:31;;;;;;;23.15;12.18;;;7.50;99.90;;;;;;5003320;28;20032;-86
2022/04/05 05:55:57;;;;;;;22.88;12.07;;;7.50;99.90;;;;;;5021654;28;20544;-86
2022/04/05 05:58:22;;;;;;;16.10;10.85;;;7.50;99.90;;;;;;5007124;28;20034;-87
2022/04/05 06:00:48;;;;;;;15.60;10.77;;;7.50;99.90;;;;;;5006703;28;20032;-86
2022/04/05 06:03:14;;;;;;;17.70;10.82;;;7.50;99.90;;;;;;5006352;28;20022;-87
2022/04/05 06:05:39;;;;;;;17.75;10.93;;;7.50;99.90;;;;;;5005352;28;20037;-78
2022/04/05 06:08:05;;;;;;;18.42;10.82;;;7.60;99.90;;;;;;5024257;28;20022;-86
2022/04/05 06:10:31;;;;;;;17.30;10.55;;;7.60;99.90;;;;;;5006085;28;20033;-85
2022/04/05 06:12:58;;;;;;;21.10;10.60;;;7.60;99.90;;;;;;5029262;28;20022;-85
2022/04/05 06:15:25;;;;;;;16.38;10.23;;;7.60;99.90;;;;;;5022329;28;20401;-84
2022/04/05 06:17:51;;;;;;;16.25;10.23;;;7.60;99.90;;;;;;5019759;28;20561;-87
2022/04/05 06:20:19;;;;;;;19.15;10.55;;;7.70;99.90;;;;;;5012962;28;20459;-88
2022/04/05 06:22:51;;;;;;;17.20;10.98;;;7.70;99.90;;;;;;5012597;28;20053;-87
2022/04/05 06:25:20;;;;;;;17.70;10.45;;;7.70;99.90;;;;;;5010779;28;20061;-87
2022/04/05 06:27:47;;;;;;;18.35;10.38;;;7.70;99.90;;;;;;5009555;28;20500;-84
2022/04/05 06:30:15;;;;;;;18.48;11.02;;;7.70;99.90;;;;;;5026216;28;20077;-86
2022/04/05 06:32:42;;;;;;;16.02;10.45;;;7.70;99.90;;;;;;5008463;28;20410;-86
2022/04/05 06:35:09;;;;;;;17.35;11.25;;;7.80;99.90;;;;;;5025130;28;20036;-84
2022/04/05 06:37:36;;;;;;;17.23;10.35;;;7.80;99.90;;;;;;5007382;28;20503;-87
2022/04/05 06:40:06;;;;;;;17.17;9.88;;;7.80;99.90;;;;;;5025143;28;20049;-87
2022/04/05 06:42:33;;;;;;;17.33;10.23;;;7.80;99.90;;;;;;5009350;28;20052;-87
2022/04/05 06:44:59;;;;;;;16.33;10.48;;;8.00;99.90;;;;;;5006862;28;20032;-87
2022/04/05 06:47:25;;;;;;;16.92;10.10;;;7.90;99.90;;;;;;5007604;28;20513;-87
2022/04/05 06:49:50;;;;;;;15.93;9.98;;;8.00;99.90;;;;;;5006761;28;20374;-84
2022/04/05 06:52:16;;;;;;;12.70;9.07;;;8.00;99.90;;;;;;5008269;28;20061;-86
2022/04/05 06:54:42;;;;;;;17.52;10.55;;;8.00;99.90;;;;;;5009006;28;20207;-86
2022/04/05 06:57:09;;;;;;;14.43;9.25;;;8.00;99.90;;;;;;5005208;28;20041;-84
2022/04/05 06:59:36;;;;;;;14.98;9.18;;;8.00;99.90;;;;;;5022913;28;20026;-87
2022/04/05 07:02:01;;;;;;;14.68;9.38;;;8.00;99.90;;;;;;5023636;28;20056;-87
2022/04/05 07:04:29;;;;;;;13.52;8.88;;;8.00;99.90;;;;;;5024649;28;20022;-86
2022/04/05 07:06:55;;;;;;;15.20;9.07;;;8.10;99.90;;;;;;5006434;28;20042;-85
2022/04/05 07:09:22;;;;;;;15.07;9.25;;;8.00;99.90;;;;;;5005538;28;20457;-86
2022/04/05 07:11:48;;;;;;;14.70;9.25;;;8.00;99.90;;;;;;5006409;28;20056;-86
2022/04/05 07:14:14;;;;;;;14.32;9.20;;;8.10;99.90;;;;;;5006636;28;20018;-85
2022/04/05 07:16:39;;;;;;;17.42;9.48;;;8.10;99.90;;;;;;5006840;28;20022;-85
2022/04/05 07:19:05;;;;;;;15.63;10.15;;;8.10;99.90;;;;;;5007809;28;20026;-86
2022/04/05 07:21:31;;;;;;;20.50;9.95;;;8.10;99.90;;;;;;5006161;28;20032;-86
2022/04/05 07:23:56;;;;;;;16.38;9.07;;;8.10;99.90;;;;;;5003737;28;20074;-87
2022/04/05 07:26:22;;;;;;;20.15;9.93;;;8.20;99.90;;;;;;5003244;28;20033;-87
2022/04/05 07:28:48;;;;;;;19.42;10.65;;;8.20;99.90;;;;;;5003534;28;20033;-87
2022/04/05 07:31:15;;;;;;;17.15;10.10;;;8.30;99.90;;;;;;5007060;28;20026;-86
2022/04/05 07:33:41;;;;;;;17.63;9.90;;;8.30;99.90;;;;;;5013271;28;20042;-88
2022/04/05 07:36:06;;;;;;;17.52;10.23;;;8.30;99.90;;;;;;5028539;28;20040;-87
2022/04/05 07:38:32;;;;;;;15.05;9.20;;;8.40;99.90;;;;;;5009015;28;20018;-86
2022/04/05 07:40:57;;;;;;;17.52;9.63;;;8.40;99.90;;;;;;5025996;28;20080;-85
2022/04/05 07:43:25;;;;;;;16.20;9.40;;;8.40;99.90;;;;;;5009233;28;20028;-85
2022/04/05 07:45:52;;;;;;;20.48;10.50;;;8.50;99.90;;;;;;5009370;28;20022;-87
2022/04/05 07:48:19;;;;;;;21.95;13.38;;;8.50;99.90;;;;;;5007914;28;20404;-85
2022/04/05 07:50:46;;;;;;;22.38;13.32;;;8.50;99.90;;;;;;5025490;28;20105;-85
2022/04/05 07:53:13;;;;;;;25.75;16.10;;;8.60;99.90;;;;;;5018122;28;20034;-84
2022/04/05 07:55:39;;;;;;;26.92;16.50;;;8.70;99.90;;;;;;5027778;22;20461;-78
2022/04/05 07:58:04;;;;;;;29.05;16.92;;;8.70;99.90;;;;;;5013009;28;20083;-77
2022/04/05 08:00:30;;;;;;;28.75;19.42;;;8.80;99.90;;;;;;5014917;28;20041;-78
2022/04/05 08:02:56;;;;;;;31.30;19.05;;;9.00;99.90;;;;;;5016774;28;20026;-76
2022/04/05 08:05:23;;;;;;;30.02;20.20;;;9.10;99.90;;;;;;5018274;28;20117;-77
2022/04/05 08:07:49;;;;;;;28.20;20.27;;;9.20;99.90;;;;;;5017265;28;20025;-79
2022/04/05 08:10:15;;;;;;;29.35;21.80;;;9.20;99.90;;;;;;5014593;28;20026;-79
2022/04/05 08:12:46;;;;;;;33.05;22.30;;;9.30;99.90;;;;;;5016629;28;20087;-80
2022/04/05 08:15:15;;;;;;;31.80;23.35;;;9.40;99.90;;;;;;5017083;28;20041;-79
2022/04/05 08:17:40;;;;;;;35.97;25.20;;;9.40;99.90;;;;;;5016024;28;20109;-78
2022/04/05 08:20:08;;;;;;;35.05;25.67;;;9.50;99.90;;;;;;5013964;28;20052;-81
2022/04/05 08:22:33;;;;;;;36.22;25.70;;;9.60;99.90;;;;;;5014478;28;20026;-80
2022/04/05 08:24:59;;;;;;;32.30;24.50;;;9.60;99.90;;;;;;5013316;28;20429;-80
2022/04/05 08:27:25;;;;;;;34.22;26.33;;;9.70;99.90;;;;;;5015212;28;20030;-77
2022/04/05 08:29:51;;;;;;;39.75;25.63;;;9.80;99.90;;;;;;5013461;28;20025;-77
2022/04/05 08:32:16;;;;;;;36.63;25.33;;;9.80;99.90;;;;;;5014620;28;20034;-77
2022/04/05 08:34:42;;;;;;;34.22;24.95;;;9.80;99.90;;;;;;5014448;28;20026;-79
2022/04/05 08:37:09;;;;;;;38.00;27.52;;;9.70;99.90;;;;;;5013739;28;20133;-77
2022/04/05 08:39:35;;;;;;;36.67;25.65;;;9.80;99.90;;;;;;5018744;28;20037;-81
2022/04/05 08:42:03;;;;;;;38.00;26.83;;;9.80;99.90;;;;;;5016945;28;20028;-79
2022/04/05 08:44:29;;;;;;;41.42;26.13;;;9.80;99.90;;;;;;5016806;28;20024;-78
2022/04/05 08:46:55;;;;;;;40.80;28.55;;;9.80;99.90;;;;;;5019249;28;20033;-78
2022/04/05 08:49:22;;;;;;;34.42;25.10;;;9.80;99.90;;;;;;5016242;28;20026;-79
2022/04/05 08:51:49;;;;;;;40.72;26.60;;;9.80;99.90;;;;;;5017131;28;20022;-77
2022/04/05 08:54:15;;;;;;;36.13;25.73;;;9.90;99.90;;;;;;5017611;28;20033;-77
2022/04/05 08:56:41;;;;;;;34.80;24.63;;;9.90;99.90;;;;;;5018234;28;20026;-78
2022/04/05 08:59:07;;;;;;;37.50;26.95;;;10.00;99.90;;;;;;5018718;28;20102;-78
2022/04/05 09:01:34;;;;;;;32.03;24.58;;;10.00;99.90;;;;;;5021310;28;20022;-77
2022/04/05 09:04:00;;;;;;;34.28;24.42;;;10.10;99.90;;;;;;5022535;28;20063;-78
2022/04/05 09:06:29;;;;;;;34.08;24.38;;;10.20;99.90;;;;;;5019555;28;20113;-79
2022/04/05 09:09:18;;;;;;;30.27;22.48;;;10.20;99.90;;;;;;5019092;28;20378;-78
2022/04/05 09:11:56;;;;;;;30.77;22.83;;;10.20;99.90;;;;;;5018519;28;20056;-78
2022/04/05 09:14:24;;;;;;;26.55;21.95;;;10.20;99.90;;;;;;5018252;28;20026;-79
2022/04/05 09:17:12;;;;;;;29.50;21.98;;;10.20;99.90;;;;;;5020050;28;20022;-78
2022/04/05 09:19:42;;;;;;;32.55;24.95;;;10.20;99.90;;;;;;5020070;28;20534;-78
2022/04/05 09:22:08;;;;;;;29.42;24.05;;;10.30;99.90;;;;;;5016859;28;20022;-78
2022/04/05 09:24:35;;;;;;;29.80;23.92;;;10.50;99.90;;;;;;5018686;28;20022;-79
2022/04/05 09:27:02;;;;;;;34.33;24.58;;;10.70;99.90;;;;;;5018061;28;20046;-78
2022/04/05 09:29:41;;;;;;;33.42;23.45;;;10.90;99.90;;;;;;5018289;28;20480;-77
2022/04/05 09:32:08;;;;;;;31.52;22.65;;;11.00;99.90;;;;;;5016574;28;20100;-80
2022/04/05 09:34:48;;;;;;;32.45;22.58;;;11.00;99.90;;;;;;5016719;28;20078;-80
2022/04/05 09:37:14;;;;;;;27.20;21.75;;;10.90;99.90;;;;;;5017321;28;20029;-78
2022/04/05 09:39:41;;;;;;;31.92;25.10;;;10.80;99.90;;;;;;5017162;28;20026;-79
2022/04/05 09:42:09;;;;;;;29.92;22.52;;;10.80;99.90;;;;;;5016808;28;20102;-76
2022/04/05 09:44:42;;;;;;;30.08;23.27;;;10.70;99.90;;;;;;5008822;28;20019;-79
2022/04/05 09:47:17;;;;;;;30.55;22.40;;;10.60;99.90;;;;;;4996523;28;20022;-78
2022/04/05 09:49:45;;;;;;;26.98;21.65;;;10.60;99.90;;;;;;4997734;28;20033;-79
2022/04/05 09:52:31;;;;;;;25.38;19.25;;;10.60;99.90;;;;;;4998636;28;20030;-79
2022/04/05 09:55:12;;;;;;;28.55;21.10;;;10.60;99.90;;;;;;4997207;28;20030;-79
2022/04/05 09:57:39;;;;;;;28.00;22.55;;;10.80;99.90;;;;;;4996926;28;20030;-77
2022/04/05 10:00:13;;;;;;;25.65;21.20;;;11.00;99.90;;;;;;4998292;28;20581;-79
2022/04/05 10:03:02;;;;;;;42.53;26.48;;;11.10;99.90;;;;;;4999829;28;20081;-78
2022/04/05 10:05:32;;;;;;;30.08;20.67;;;11.10;99.90;;;;;;4995553;28;20030;-78
2022/04/05 10:07:59;;;;;;;24.38;17.95;;;11.00;99.90;;;;;;4996869;28;20064;-77
2022/04/05 10:10:25;;;;;;;25.15;19.33;;;10.90;99.90;;;;;;4997929;28;20094;-79
2022/04/05 10:12:52;;;;;;;27.05;21.77;;;10.80;99.90;;;;;;4998229;28;20030;-79
2022/04/05 10:15:21;;;;;;;28.67;20.55;;;10.70;99.90;;;;;;4996743;28;20038;-77
2022/04/05 10:17:49;;;;;;;29.85;22.20;;;10.90;99.90;;;;;;4995569;28;20553;-80
2022/04/05 10:20:17;;;;;;;31.13;22.83;;;10.90;99.90;;;;;;4996128;28;20556;-79
2022/04/05 10:22:45;;;;;;;32.75;23.30;;;11.00;99.90;;;;;;4995127;28;20026;-81
2022/04/05 10:25:10;;;;;;;28.42;23.13;;;11.10;99.90;;;;;;4994517;28;20402;-77
2022/04/05 10:27:36;;;;;;;28.65;21.13;;;11.20;99.90;;;;;;4996512;28;20030;-77
2022/04/05 10:30:02;;;;;;;26.38;21.65;;;11.30;99.90;;;;;;4995859;28;20023;-78
2022/04/05 10:33:05;;;;;;;28.30;22.55;;;11.20;99.90;;;;;;4996008;28;20030;-79
2022/04/05 10:35:36;;;;;;;32.53;23.25;;;11.20;99.90;;;;;;4995440;28;20124;-78
2022/04/05 10:38:13;;;;;;;31.65;23.88;;;11.00;99.90;;;;;;4995063;28;20018;-78
2022/04/05 10:40:39;;;;;;;35.30;25.90;;;11.00;99.90;;;;;;4997011;28;20014;-78
2022/04/05 10:43:16;;;;;;;32.55;25.10;;;11.00;99.90;;;;;;4999116;28;20043;-78
2022/04/05 10:45:43;;;;;;;36.10;26.50;;;11.10;99.90;;;;;;5016931;28;20084;-80
2022/04/05 10:48:12;;;;;;;28.80;23.27;;;11.30;99.90;;;;;;5024332;28;20060;-76
2022/04/05 10:50:40;;;;;;;28.73;22.05;;;11.30;99.90;;;;;;5035097;28;20021;-77
2022/04/05 10:53:20;;;;;;;26.92;20.98;;;11.30;99.90;;;;;;5033636;28;20049;-79
2022/04/05 10:56:08;;;;;;;28.35;22.45;;;11.30;99.90;;;;;;5028162;28;20072;-79
2022/04/05 10:58:39;;;;;;;29.15;23.88;;;11.50;99.90;;;;;;5028684;28;20018;-77
2022/04/05 11:01:43;;;;;;;33.65;24.77;;;11.70;99.90;;;;;;5028315;28;20189;-77
2022/04/05 11:04:18;;;;;;;28.00;20.50;;;11.80;99.90;;;;;;5026785;28;20131;-77
2022/04/05 11:07:02;;;;;;;30.30;21.45;;;11.80;99.90;;;;;;5027515;28;20018;-78
2022/04/05 11:09:33;;;;;;;26.17;21.05;;;11.80;99.90;;;;;;5024389;28;20054;-77
2022/04/05 11:12:04;;;;;;;30.00;21.63;;;11.70;99.90;;;;;;5023829;28;20026;-78
2022/04/05 11:14:50;;;;;;;27.92;21.42;;;11.60;99.90;;;;;;5023952;28;20026;-78
2022/04/05 11:17:18;;;;;;;22.40;18.30;;;11.50;99.90;;;;;;5022070;28;20033;-77
2022/04/05 11:19:46;;;;;;;25.02;19.42;;;11.50;99.90;;;;;;5021589;28;20034;-79
2022/04/05 11:22:21;;;;;;;23.58;17.83;;;11.60;99.90;;;;;;5024319;28;20144;-75
2022/04/05 11:24:51;;;;;;;19.40;16.30;;;11.70;99.90;;;;;;5024225;28;20029;-78
2022/04/05 11:27:49;;;;;;;20.75;17.02;;;11.60;99.90;;;;;;5022855;28;20030;-77
2022/04/05 11:30:36;;;;;;;18.83;15.80;;;11.60;99.90;;;;;;5023935;28;20144;-77
2022/04/05 11:33:21;;;;;;;26.90;16.45;;;11.50;99.90;;;;;;5024486;28;20029;-78
2022/04/05 11:35:58;;;;;;;21.98;16.27;;;11.50;99.90;;;;;;5022997;28;20041;-78
2022/04/05 11:38:26;;;;;;;21.33;15.98;;;11.50;99.90;;;;;;5023217;28;20297;-78
2022/04/05 11:41:02;;;;;;;20.98;14.75;;;11.60;99.90;;;;;;5023219;28;20025;-81
2022/04/05 11:43:42;;;;;;;15.57;12.80;;;11.50;99.90;;;;;;5023786;28;20032;-79
2022/04/05 11:46:20;;;;;;;22.80;14.25;;;11.20;99.90;;;;;;5003327;28;20049;-80
2022/04/05 11:48:51;;;;;;;17.65;12.80;;;11.20;99.90;;;;;;5004068;28;20032;-77
2022/04/05 11:51:20;;;;;;;17.08;13.05;;;11.40;99.90;;;;;;5003436;28;20037;-78
2022/04/05 11:53:46;;;;;;;16.42;11.98;;;11.50;99.90;;;;;;5000521;28;20030;-79
2022/04/05 11:56:20;;;;;;;15.18;12.30;;;11.70;99.90;;;;;;5002313;28;20026;-78
2022/04/05 11:58:52;;;;;;;16.63;13.32;;;11.50;99.90;;;;;;5000718;28;20062;-79
2022/04/05 12:01:24;;;;;;;15.48;13.55;;;11.50;99.90;;;;;;4999445;28;20042;-79
2022/04/05 12:03:54;;;;;;;20.00;15.75;;;11.60;99.90;;;;;;4998684;28;20023;-79
2022/04/05 12:06:29;;;;;;;17.48;15.68;;;11.70;99.90;;;;;;4999001;28;20486;-78
2022/04/05 12:08:58;;;;;;;18.63;14.52;;;11.80;99.90;;;;;;4998746;28;20038;-79
2022/04/05 12:11:25;;;;;;;17.25;14.73;;;11.90;99.90;;;;;;5002372;28;20030;-78
2022/04/05 12:14:05;;;;;;;17.48;14.93;;;12.00;99.90;;;;;;4997830;28;20027;-80
2022/04/05 12:16:50;;;;;;;16.15;14.45;;;12.20;99.90;;;;;;4998798;28;20022;-82
2022/04/05 12:19:28;;;;;;;18.20;13.80;;;12.20;99.90;;;;;;4996571;28;20018;-81
2022/04/05 12:22:06;;;;;;;15.65;13.85;;;12.20;99.90;;;;;;5000367;28;20025;-77
2022/04/05 12:24:33;;;;;;;16.92;15.13;;;12.20;99.90;;;;;;4999080;28;20316;-80
2022/04/05 12:27:00;;;;;;;12.50;11.15;;;12.30;99.90;;;;;;4998222;28;20097;-80
2022/04/05 12:29:28;;;;;;;12.80;11.00;;;12.30;99.90;;;;;;4996673;28;20030;-79
2022/04/05 12:31:55;;;;;;;12.68;10.65;;;12.30;99.90;;;;;;4996614;28;20026;-79
2022/04/05 12:34:21;;;;;;;12.10;10.65;;;12.30;99.90;;;;;;4997342;28;20037;-81
2022/04/05 12:36:58;;;;;;;11.23;10.13;;;12.20;99.90;;;;;;4996598;28;20034;-80
2022/04/05 12:39:30;;;;;;;12.20;10.98;;;12.20;99.90;;;;;;4995655;28;20046;-79
2022/04/05 12:41:57;;;;;;;13.68;11.90;;;12.10;99.90;;;;;;4996440;28;20050;-79
2022/04/05 12:44:28;;;;;;;16.00;14.30;;;12.20;99.90;;;;;;5001512;28;20026;-80
2022/04/05 12:47:00;;;;;;;13.00;11.68;;;12.50;99.90;;;;;;5015940;28;20033;-81
2022/04/05 12:49:34;;;;;;;12.00;10.75;;;12.60;99.90;;;;;;5016212;28;20028;-79